OMAL/AAN METAR and TAF weather

Enter ICAO airport designator
Station Type Date Time Source
OMAL METAR 2018/12/10 13:00 UTC NOAA

OMAL 101300Z 33014KT CAVOK 27/12 Q1015 NOSIG


Station Type Date Time Source
OMAL Decoded METAR 2018/12/10 13:00 UTC NOAA

Al Ain International Airport, United Arab Emirates (OMAL) 24-16N 055-36E 262M
Dec 10, 2018 - 08:00 AM EST / 2018.12.10 1300 UTC
Wind: from the NNW (330 degrees) at 16 MPH (14 KT):0
Visibility: greater than 7 mile(s):0
Temperature: 80 F (27 C)
Dew Point: 53 F (12 C)
Relative Humidity: 39%
Pressure (altimeter): 29.97 in. Hg (1015 hPa)
ob: OMAL 101300Z 33014KT CAVOK 27/12 Q1015 NOSIG
cycle: 13

Station Type Date Time Source
OMAL TAF 2018/12/10 12:06 UTC NOAA

TAF OMAL 101100Z 1012/1118 33012KT 8000 NSC
BECMG 1018/1020 VRB02KT PROB30 1101/1105 4000 HZ
BECMG 1105/1107 31011KT


Example: see airport list